TAM8702 SBPA-SAEZ
Flight info
| Callsign | TAM8702 |
|---|---|
| Flight time | 1h 16m |
| Altitude | 37000 |
| Route | TOKAK UZ53 UMRUD UN741 PAPIX PAPIX7A |
| Aircraft | A346/H-SDE2E3FGHIJ3J4J5M1RWXY/LB1D1 |
Departure
| Time | 2026-05-07 15:34 |
|---|---|
| Airport | Porto Alegre-Salgado Filho International Airport (SBPA) |
Arrival
| Time | 2026-05-07 16:50 |
|---|---|
| Airport | Ezeiza International Airport - Ministro Pistarini (SAEZ) |
| Time | Latitude | Longitude | Altitude | Speed | Heading |
|---|---|---|---|---|---|
| 2026-05-07 14:54 | -29.98959 | -51.18011 | 27 ft | 0 kts | 296° |
| 2026-05-07 15:27 | -29.98967 | -51.17991 | 26 ft | 3 kts | 296° |
| 2026-05-07 15:27 | -29.98978 | -51.17968 | 26 ft | 3 kts | 296° |
| 2026-05-07 15:28 | -29.98988 | -51.17945 | 24 ft | 3 kts | 296° |
| 2026-05-07 15:28 | -29.98998 | -51.17922 | 27 ft | 3 kts | 296° |
| 2026-05-07 15:28 | -29.98999 | -51.17919 | 26 ft | 0 kts | 296° |
| 2026-05-07 15:30 | -29.98999 | -51.17920 | 27 ft | 1 kts | 296° |
| 2026-05-07 15:30 | -29.99008 | -51.17945 | 25 ft | 10 kts | 207° |
| 2026-05-07 15:30 | -29.99112 | -51.18007 | 27 ft | 20 kts | 207° |
| 2026-05-07 15:31 | -29.99185 | -51.18055 | 27 ft | 10 kts | 219° |
| 2026-05-07 15:31 | -29.99237 | -51.18124 | 27 ft | 13 kts | 230° |
| 2026-05-07 15:31 | -29.99310 | -51.18198 | 27 ft | 15 kts | 211° |
| 2026-05-07 15:31 | -29.99367 | -51.18238 | 28 ft | 0 kts | 211° |
| 2026-05-07 15:32 | -29.99379 | -51.18247 | 28 ft | 4 kts | 211° |
| 2026-05-07 15:32 | -29.99410 | -51.18270 | 28 ft | 7 kts | 212° |
| 2026-05-07 15:32 | -29.99422 | -51.18270 | 29 ft | 1 kts | 142° |
| 2026-05-07 15:32 | -29.99431 | -51.18252 | 29 ft | 5 kts | 114° |
| 2026-05-07 15:33 | -29.99439 | -51.18191 | 30 ft | 0 kts | 96° |
| 2026-05-07 15:33 | -29.99441 | -51.18165 | 30 ft | 0 kts | 89° |
| 2026-05-07 15:33 | -29.99440 | -51.18079 | 30 ft | 41 kts | 91° |
| 2026-05-07 15:34 | -29.99441 | -51.17423 | 27 ft | 119 kts | 87° |
| 2026-05-07 15:34 | -29.99463 | -51.16202 | 39 ft | 181 kts | 88° |
| 2026-05-07 15:34 | -29.99529 | -51.14657 | 498 ft | 200 kts | 85° |
| 2026-05-07 15:34 | -29.99551 | -51.13027 | 1298 ft | 204 kts | 85° |
| 2026-05-07 15:35 | -29.99711 | -51.11374 | 2169 ft | 214 kts | 98° |
| 2026-05-07 15:35 | -30.00575 | -51.09895 | 2748 ft | 240 kts | 142° |
| 2026-05-07 15:35 | -30.02173 | -51.09292 | 3331 ft | 247 kts | 184° |
| 2026-05-07 15:35 | -30.03896 | -51.09508 | 3959 ft | 255 kts | 197° |
| 2026-05-07 15:36 | -30.05707 | -51.09864 | 4505 ft | 273 kts | 195° |
| 2026-05-07 15:36 | -30.07665 | -51.10130 | 5120 ft | 290 kts | 190° |
| 2026-05-07 15:36 | -30.09742 | -51.10269 | 5722 ft | 311 kts | 187° |
| 2026-05-07 15:36 | -30.11977 | -51.10327 | 5997 ft | 342 kts | 185° |
| 2026-05-07 15:37 | -30.14434 | -51.10343 | 6009 ft | 360 kts | 184° |
| 2026-05-07 15:37 | -30.16913 | -51.10339 | 5980 ft | 360 kts | 184° |
| 2026-05-07 15:37 | -30.19419 | -51.10656 | 6442 ft | 363 kts | 204° |
| 2026-05-07 15:37 | -30.21481 | -51.12143 | 7508 ft | 339 kts | 232° |
| 2026-05-07 15:38 | -30.22825 | -51.14280 | 8826 ft | 320 kts | 244° |
| 2026-05-07 15:38 | -30.23942 | -51.16466 | 10096 ft | 310 kts | 244° |
| 2026-05-07 15:38 | -30.25049 | -51.18581 | 11078 ft | 308 kts | 244° |
| 2026-05-07 15:38 | -30.26227 | -51.20733 | 11577 ft | 324 kts | 243° |
| 2026-05-07 15:39 | -30.27506 | -51.22979 | 11945 ft | 343 kts | 242° |
| 2026-05-07 15:39 | -30.28880 | -51.25326 | 12292 ft | 361 kts | 241° |
| 2026-05-07 15:39 | -30.30346 | -51.27787 | 12639 ft | 379 kts | 240° |
| 2026-05-07 15:39 | -30.31884 | -51.30347 | 13022 ft | 394 kts | 240° |
| 2026-05-07 15:40 | -30.33452 | -51.32938 | 13666 ft | 400 kts | 240° |
| 2026-05-07 15:40 | -30.35059 | -51.35589 | 14349 ft | 403 kts | 240° |
| 2026-05-07 15:40 | -30.36674 | -51.38257 | 15065 ft | 406 kts | 240° |
| 2026-05-07 15:40 | -30.38303 | -51.40948 | 15786 ft | 408 kts | 240° |
| 2026-05-07 15:41 | -30.39941 | -51.43656 | 16519 ft | 411 kts | 240° |
| 2026-05-07 15:41 | -30.41588 | -51.46382 | 17276 ft | 413 kts | 240° |
| 2026-05-07 15:41 | -30.43243 | -51.49123 | 18016 ft | 416 kts | 240° |
| 2026-05-07 15:41 | -30.44908 | -51.51884 | 18678 ft | 419 kts | 240° |
| 2026-05-07 15:42 | -30.46586 | -51.54668 | 19364 ft | 421 kts | 240° |
| 2026-05-07 15:42 | -30.48272 | -51.57466 | 20033 ft | 424 kts | 240° |
| 2026-05-07 15:42 | -30.49967 | -51.60280 | 20670 ft | 427 kts | 240° |
| 2026-05-07 15:42 | -30.51673 | -51.63120 | 21300 ft | 430 kts | 240° |
| 2026-05-07 15:43 | -30.53394 | -51.65985 | 21949 ft | 433 kts | 240° |
| 2026-05-07 15:43 | -30.55124 | -51.68865 | 22591 ft | 436 kts | 240° |
| 2026-05-07 15:43 | -30.56845 | -51.71727 | 23194 ft | 439 kts | 240° |
| 2026-05-07 15:43 | -30.58601 | -51.74647 | 23741 ft | 442 kts | 240° |
| 2026-05-07 15:44 | -30.60368 | -51.77582 | 24272 ft | 444 kts | 240° |
| 2026-05-07 15:44 | -30.62138 | -51.80528 | 24817 ft | 446 kts | 240° |
| 2026-05-07 15:44 | -30.63921 | -51.83499 | 25383 ft | 448 kts | 242° |
| 2026-05-07 15:44 | -30.65462 | -51.86624 | 25871 ft | 444 kts | 251° |
| 2026-05-07 15:45 | -30.66492 | -51.89981 | 26396 ft | 439 kts | 261° |
| 2026-05-07 15:45 | -30.67021 | -51.93452 | 26934 ft | 434 kts | 269° |
| 2026-05-07 15:45 | -30.67178 | -51.96963 | 27441 ft | 436 kts | 271° |
| 2026-05-07 15:45 | -30.67298 | -52.00499 | 27972 ft | 438 kts | 271° |
| 2026-05-07 15:46 | -30.67527 | -52.07554 | 29480 ft | 433 kts | 272° |
| 2026-05-07 15:46 | -30.67634 | -52.11035 | 30318 ft | 427 kts | 272° |
| 2026-05-07 15:46 | -30.67730 | -52.14469 | 31044 ft | 423 kts | 271° |
| 2026-05-07 15:47 | -30.67824 | -52.17873 | 31661 ft | 421 kts | 271° |
| 2026-05-07 15:47 | -30.67920 | -52.21277 | 32230 ft | 420 kts | 270° |
| 2026-05-07 15:47 | -30.68017 | -52.24619 | 32818 ft | 418 kts | 270° |
| 2026-05-07 15:47 | -30.68114 | -52.27998 | 33450 ft | 416 kts | 270° |
| 2026-05-07 15:48 | -30.68213 | -52.31356 | 34016 ft | 414 kts | 270° |
| 2026-05-07 15:48 | -30.68310 | -52.34711 | 34446 ft | 414 kts | 270° |
| 2026-05-07 15:48 | -30.68404 | -52.38075 | 34812 ft | 416 kts | 270° |
| 2026-05-07 15:48 | -30.68499 | -52.41446 | 35168 ft | 418 kts | 269° |
| 2026-05-07 15:49 | -30.68594 | -52.44842 | 35469 ft | 421 kts | 269° |
| 2026-05-07 15:49 | -30.68688 | -52.48267 | 35740 ft | 424 kts | 269° |
| 2026-05-07 15:49 | -30.68781 | -52.51709 | 36024 ft | 427 kts | 269° |
| 2026-05-07 15:49 | -30.68874 | -52.55126 | 36283 ft | 430 kts | 269° |
| 2026-05-07 15:50 | -30.68968 | -52.58620 | 36496 ft | 433 kts | 269° |
| 2026-05-07 15:50 | -30.69060 | -52.62143 | 36699 ft | 436 kts | 269° |
| 2026-05-07 15:50 | -30.69151 | -52.65677 | 36693 ft | 437 kts | 269° |
| 2026-05-07 15:51 | -30.69481 | -52.72735 | 36719 ft | 437 kts | 265° |
| 2026-05-07 15:51 | -30.70472 | -52.79721 | 36711 ft | 439 kts | 259° |
| 2026-05-07 15:52 | -30.72167 | -52.86560 | 36704 ft | 441 kts | 253° |
| 2026-05-07 15:52 | -30.74548 | -52.93155 | 36703 ft | 443 kts | 247° |
| 2026-05-07 15:53 | -30.77223 | -52.99635 | 36698 ft | 444 kts | 247° |
| 2026-05-07 15:53 | -30.79914 | -53.06114 | 36694 ft | 444 kts | 247° |
| 2026-05-07 15:54 | -30.82586 | -53.12564 | 36692 ft | 444 kts | 247° |
| 2026-05-07 15:54 | -30.85272 | -53.19062 | 36686 ft | 444 kts | 247° |
| 2026-05-07 15:55 | -30.87952 | -53.25556 | 36700 ft | 444 kts | 247° |
| 2026-05-07 15:55 | -30.90619 | -53.32027 | 36685 ft | 446 kts | 248° |
| 2026-05-07 15:56 | -30.93305 | -53.38556 | 36680 ft | 446 kts | 248° |
| 2026-05-07 15:56 | -30.95991 | -53.45090 | 36680 ft | 448 kts | 248° |
| 2026-05-07 15:57 | -30.98682 | -53.51652 | 36675 ft | 448 kts | 248° |
| 2026-05-07 15:57 | -31.01354 | -53.58179 | 36671 ft | 448 kts | 248° |
| 2026-05-07 15:58 | -31.04041 | -53.64752 | 36673 ft | 448 kts | 248° |
| 2026-05-07 15:58 | -31.06724 | -53.71328 | 36670 ft | 448 kts | 248° |
| 2026-05-07 15:59 | -31.09404 | -53.77897 | 36678 ft | 447 kts | 248° |
| 2026-05-07 15:59 | -31.12069 | -53.84456 | 36667 ft | 447 kts | 248° |
| 2026-05-07 16:00 | -31.14731 | -53.91019 | 36649 ft | 447 kts | 248° |
| 2026-05-07 16:00 | -31.17389 | -53.97584 | 36638 ft | 447 kts | 248° |
| 2026-05-07 16:01 | -31.20046 | -54.04140 | 36636 ft | 445 kts | 249° |
| 2026-05-07 16:01 | -31.22672 | -54.10653 | 36616 ft | 445 kts | 249° |
| 2026-05-07 16:02 | -31.25307 | -54.17199 | 36610 ft | 445 kts | 249° |
| 2026-05-07 16:02 | -31.27944 | -54.23758 | 36612 ft | 445 kts | 249° |
| 2026-05-07 16:03 | -31.30571 | -54.30284 | 36620 ft | 441 kts | 250° |
| 2026-05-07 16:03 | -31.33174 | -54.36788 | 36637 ft | 440 kts | 250° |
| 2026-05-07 16:04 | -31.35767 | -54.43277 | 36673 ft | 440 kts | 250° |
| 2026-05-07 16:04 | -31.38349 | -54.49746 | 36667 ft | 440 kts | 250° |
| 2026-05-07 16:05 | -31.41036 | -54.56215 | 36670 ft | 442 kts | 247° |
| 2026-05-07 16:05 | -31.44273 | -54.62405 | 36666 ft | 447 kts | 241° |
| 2026-05-07 16:06 | -31.48124 | -54.68194 | 36669 ft | 453 kts | 235° |
| 2026-05-07 16:06 | -31.52537 | -54.73474 | 36669 ft | 458 kts | 230° |
| 2026-05-07 16:07 | -31.57246 | -54.78563 | 36663 ft | 463 kts | 230° |
| 2026-05-07 16:07 | -31.62002 | -54.83688 | 36658 ft | 464 kts | 230° |
| 2026-05-07 16:08 | -31.66779 | -54.88845 | 36656 ft | 467 kts | 230° |
| 2026-05-07 16:08 | -31.71568 | -54.94023 | 36648 ft | 468 kts | 230° |
| 2026-05-07 16:09 | -31.76354 | -54.99209 | 36646 ft | 468 kts | 230° |
| 2026-05-07 16:09 | -31.81153 | -55.04415 | 36651 ft | 471 kts | 230° |
| 2026-05-07 16:10 | -31.85970 | -55.09652 | 36635 ft | 472 kts | 230° |
| 2026-05-07 16:10 | -31.90759 | -55.14863 | 36632 ft | 471 kts | 230° |
| 2026-05-07 16:11 | -31.95587 | -55.20127 | 36621 ft | 471 kts | 230° |
| 2026-05-07 16:11 | -32.00408 | -55.25389 | 36620 ft | 473 kts | 230° |
| 2026-05-07 16:12 | -32.04429 | -55.29784 | 36616 ft | 473 kts | 230° |
| 2026-05-07 16:12 | -32.09259 | -55.35072 | 36608 ft | 473 kts | 230° |
| 2026-05-07 16:13 | -32.14087 | -55.40365 | 36596 ft | 473 kts | 230° |
| 2026-05-07 16:13 | -32.18917 | -55.45669 | 36595 ft | 473 kts | 230° |
| 2026-05-07 16:14 | -32.23748 | -55.50981 | 36587 ft | 473 kts | 230° |
| 2026-05-07 16:14 | -32.28539 | -55.56260 | 36593 ft | 474 kts | 230° |
| 2026-05-07 16:15 | -32.33370 | -55.61585 | 36593 ft | 474 kts | 231° |
| 2026-05-07 16:15 | -32.38195 | -55.66915 | 36584 ft | 474 kts | 231° |
| 2026-05-07 16:16 | -32.43022 | -55.72257 | 36580 ft | 474 kts | 231° |
| 2026-05-07 16:16 | -32.47844 | -55.77601 | 36575 ft | 475 kts | 231° |
| 2026-05-07 16:17 | -32.52719 | -55.83022 | 36575 ft | 485 kts | 230° |
| 2026-05-07 16:17 | -32.57637 | -55.88488 | 36573 ft | 488 kts | 230° |
| 2026-05-07 16:18 | -32.62599 | -55.94005 | 36577 ft | 488 kts | 230° |
| 2026-05-07 16:18 | -32.67562 | -55.99526 | 36605 ft | 492 kts | 232° |
| 2026-05-07 16:19 | -32.72593 | -56.05159 | 36579 ft | 498 kts | 232° |
| 2026-05-07 16:19 | -32.77612 | -56.10787 | 36583 ft | 499 kts | 232° |
| 2026-05-07 16:20 | -32.82661 | -56.16445 | 36571 ft | 499 kts | 232° |
| 2026-05-07 16:20 | -32.87714 | -56.22114 | 36581 ft | 499 kts | 232° |
| 2026-05-07 16:21 | -32.92765 | -56.27788 | 36578 ft | 499 kts | 232° |
| 2026-05-07 16:21 | -32.97822 | -56.33493 | 36576 ft | 504 kts | 231° |
| 2026-05-07 16:22 | -33.02929 | -56.39264 | 36588 ft | 506 kts | 231° |
| 2026-05-07 16:22 | -33.08041 | -56.45055 | 36603 ft | 507 kts | 231° |
| 2026-05-07 16:23 | -33.13163 | -56.50875 | 36621 ft | 507 kts | 231° |
| 2026-05-07 16:23 | -33.18233 | -56.56648 | 36608 ft | 505 kts | 231° |
| 2026-05-07 16:23 | -33.20781 | -56.59547 | 36164 ft | 504 kts | 231° |
| 2026-05-07 16:24 | -33.23335 | -56.62465 | 35155 ft | 513 kts | 231° |
| 2026-05-07 16:24 | -33.25929 | -56.65438 | 34150 ft | 520 kts | 231° |
| 2026-05-07 16:24 | -33.28548 | -56.68434 | 33011 ft | 521 kts | 231° |
| 2026-05-07 16:24 | -33.31164 | -56.71417 | 32444 ft | 518 kts | 231° |
| 2026-05-07 16:25 | -33.33769 | -56.74390 | 31786 ft | 517 kts | 231° |
| 2026-05-07 16:25 | -33.36379 | -56.77370 | 31109 ft | 517 kts | 231° |
| 2026-05-07 16:25 | -33.38986 | -56.80356 | 30391 ft | 519 kts | 231° |
| 2026-05-07 16:25 | -33.41592 | -56.83345 | 29731 ft | 519 kts | 231° |
| 2026-05-07 16:26 | -33.44210 | -56.86347 | 28985 ft | 519 kts | 231° |
| 2026-05-07 16:26 | -33.46819 | -56.89340 | 28210 ft | 519 kts | 231° |
| 2026-05-07 16:26 | -33.49420 | -56.92329 | 27489 ft | 516 kts | 232° |
| 2026-05-07 16:26 | -33.52001 | -56.95298 | 26830 ft | 512 kts | 232° |
| 2026-05-07 16:27 | -33.54551 | -56.98231 | 26453 ft | 503 kts | 232° |
| 2026-05-07 16:27 | -33.57051 | -57.01105 | 26110 ft | 495 kts | 232° |
| 2026-05-07 16:27 | -33.59526 | -57.03960 | 25704 ft | 491 kts | 232° |
| 2026-05-07 16:27 | -33.61971 | -57.06785 | 25325 ft | 485 kts | 232° |
| 2026-05-07 16:28 | -33.64396 | -57.09588 | 24958 ft | 480 kts | 233° |
| 2026-05-07 16:28 | -33.66759 | -57.12321 | 24600 ft | 476 kts | 233° |
| 2026-05-07 16:28 | -33.69142 | -57.15076 | 24173 ft | 472 kts | 233° |
| 2026-05-07 16:28 | -33.71495 | -57.17804 | 23741 ft | 467 kts | 234° |
| 2026-05-07 16:29 | -33.73821 | -57.20504 | 23346 ft | 462 kts | 234° |
| 2026-05-07 16:29 | -33.76125 | -57.23179 | 22907 ft | 456 kts | 234° |
| 2026-05-07 16:29 | -33.78395 | -57.25819 | 22503 ft | 452 kts | 234° |
| 2026-05-07 16:29 | -33.80654 | -57.28451 | 22088 ft | 449 kts | 234° |
| 2026-05-07 16:30 | -33.82860 | -57.31019 | 21701 ft | 446 kts | 234° |
| 2026-05-07 16:30 | -33.85090 | -57.33616 | 21297 ft | 442 kts | 234° |
| 2026-05-07 16:30 | -33.87292 | -57.36182 | 20910 ft | 438 kts | 234° |
| 2026-05-07 16:30 | -33.89471 | -57.38721 | 20544 ft | 434 kts | 234° |
| 2026-05-07 16:31 | -33.91639 | -57.41250 | 20101 ft | 431 kts | 234° |
| 2026-05-07 16:31 | -33.93781 | -57.43752 | 19684 ft | 426 kts | 234° |
| 2026-05-07 16:31 | -33.95899 | -57.46224 | 19288 ft | 421 kts | 234° |
| 2026-05-07 16:31 | -33.97992 | -57.48670 | 18900 ft | 416 kts | 234° |
| 2026-05-07 16:32 | -34.00063 | -57.51093 | 18514 ft | 412 kts | 234° |
| 2026-05-07 16:32 | -34.02113 | -57.53493 | 18160 ft | 408 kts | 234° |
| 2026-05-07 16:32 | -34.04138 | -57.55868 | 17708 ft | 404 kts | 234° |
| 2026-05-07 16:32 | -34.06145 | -57.58227 | 17274 ft | 400 kts | 233° |
| 2026-05-07 16:33 | -34.08107 | -57.60533 | 16822 ft | 396 kts | 233° |
| 2026-05-07 16:33 | -34.10070 | -57.62842 | 16379 ft | 392 kts | 232° |
| 2026-05-07 16:33 | -34.12021 | -57.65136 | 15940 ft | 389 kts | 232° |
| 2026-05-07 16:33 | -34.13944 | -57.67408 | 15529 ft | 385 kts | 231° |
| 2026-05-07 16:34 | -34.15856 | -57.69655 | 15110 ft | 381 kts | 230° |
| 2026-05-07 16:34 | -34.17750 | -57.71880 | 14682 ft | 378 kts | 230° |
| 2026-05-07 16:34 | -34.19623 | -57.74083 | 14287 ft | 373 kts | 229° |
| 2026-05-07 16:34 | -34.21478 | -57.76266 | 13915 ft | 369 kts | 229° |
| 2026-05-07 16:35 | -34.23310 | -57.78426 | 13537 ft | 365 kts | 228° |
| 2026-05-07 16:35 | -34.25124 | -57.80566 | 13091 ft | 363 kts | 228° |
| 2026-05-07 16:35 | -34.26923 | -57.82688 | 12653 ft | 360 kts | 227° |
| 2026-05-07 16:35 | -34.28710 | -57.84799 | 12237 ft | 357 kts | 227° |
| 2026-05-07 16:36 | -34.30481 | -57.86891 | 11829 ft | 354 kts | 227° |
| 2026-05-07 16:36 | -34.32236 | -57.88966 | 11420 ft | 351 kts | 226° |
| 2026-05-07 16:36 | -34.33980 | -57.91030 | 11027 ft | 347 kts | 226° |
| 2026-05-07 16:36 | -34.35697 | -57.93063 | 10660 ft | 343 kts | 226° |
| 2026-05-07 16:37 | -34.37382 | -57.95057 | 10471 ft | 333 kts | 226° |
| 2026-05-07 16:37 | -34.39011 | -57.96988 | 10314 ft | 321 kts | 227° |
| 2026-05-07 16:37 | -34.40588 | -57.98797 | 10173 ft | 311 kts | 221° |
| 2026-05-07 16:37 | -34.42334 | -58.00267 | 10068 ft | 301 kts | 211° |
| 2026-05-07 16:38 | -34.44209 | -58.01339 | 9925 ft | 293 kts | 204° |
| 2026-05-07 16:38 | -34.46063 | -58.02229 | 9843 ft | 280 kts | 204° |
| 2026-05-07 16:38 | -34.47844 | -58.03080 | 9776 ft | 272 kts | 204° |
| 2026-05-07 16:38 | -34.49590 | -58.03908 | 9700 ft | 268 kts | 204° |
| 2026-05-07 16:39 | -34.51322 | -58.04727 | 9521 ft | 267 kts | 205° |
| 2026-05-07 16:39 | -34.53043 | -58.05551 | 9253 ft | 265 kts | 205° |
| 2026-05-07 16:39 | -34.54758 | -58.06375 | 8967 ft | 264 kts | 204° |
| 2026-05-07 16:39 | -34.56465 | -58.07195 | 8682 ft | 263 kts | 203° |
| 2026-05-07 16:40 | -34.58164 | -58.08009 | 8387 ft | 261 kts | 204° |
| 2026-05-07 16:40 | -34.59856 | -58.08826 | 8090 ft | 262 kts | 204° |
| 2026-05-07 16:40 | -34.61532 | -58.09624 | 7793 ft | 262 kts | 205° |
| 2026-05-07 16:40 | -34.63225 | -58.10431 | 7523 ft | 260 kts | 205° |
| 2026-05-07 16:41 | -34.64907 | -58.11245 | 7246 ft | 259 kts | 204° |
| 2026-05-07 16:41 | -34.66581 | -58.12055 | 6907 ft | 258 kts | 204° |
| 2026-05-07 16:41 | -34.68230 | -58.12841 | 6665 ft | 250 kts | 205° |
| 2026-05-07 16:41 | -34.69832 | -58.13620 | 6400 ft | 245 kts | 204° |
| 2026-05-07 16:42 | -34.71398 | -58.14377 | 6123 ft | 239 kts | 204° |
| 2026-05-07 16:42 | -34.72920 | -58.15104 | 5865 ft | 231 kts | 204° |
| 2026-05-07 16:42 | -34.74398 | -58.15806 | 5631 ft | 225 kts | 205° |
| 2026-05-07 16:42 | -34.75820 | -58.16496 | 5394 ft | 221 kts | 205° |
| 2026-05-07 16:43 | -34.77238 | -58.17183 | 5146 ft | 218 kts | 205° |
| 2026-05-07 16:43 | -34.78646 | -58.17873 | 4868 ft | 217 kts | 204° |
| 2026-05-07 16:43 | -34.80039 | -58.18536 | 4657 ft | 213 kts | 204° |
| 2026-05-07 16:43 | -34.81409 | -58.19195 | 4404 ft | 212 kts | 205° |
| 2026-05-07 16:44 | -34.82765 | -58.19849 | 4269 ft | 205 kts | 205° |
| 2026-05-07 16:44 | -34.84093 | -58.20492 | 4238 ft | 205 kts | 205° |
| 2026-05-07 16:44 | -34.85291 | -58.21365 | 4152 ft | 199 kts | 230° |
| 2026-05-07 16:44 | -34.85964 | -58.22815 | 4037 ft | 199 kts | 256° |
| 2026-05-07 16:45 | -34.86069 | -58.24484 | 3723 ft | 193 kts | 267° |
| 2026-05-07 16:45 | -34.86073 | -58.26057 | 3517 ft | 178 kts | 267° |
| 2026-05-07 16:45 | -34.86072 | -58.27515 | 3299 ft | 166 kts | 266° |
| 2026-05-07 16:45 | -34.86070 | -58.28910 | 3185 ft | 163 kts | 265° |
| 2026-05-07 16:46 | -34.86073 | -58.30295 | 3173 ft | 163 kts | 265° |
| 2026-05-07 16:46 | -34.86045 | -58.31687 | 3193 ft | 165 kts | 271° |
| 2026-05-07 16:46 | -34.85873 | -58.33061 | 3085 ft | 166 kts | 277° |
| 2026-05-07 16:46 | -34.85630 | -58.34445 | 3025 ft | 166 kts | 277° |
| 2026-05-07 16:47 | -34.85387 | -58.35830 | 2833 ft | 167 kts | 276° |
| 2026-05-07 16:47 | -34.85142 | -58.37229 | 2452 ft | 167 kts | 277° |
| 2026-05-07 16:47 | -34.84902 | -58.38575 | 2178 ft | 157 kts | 277° |
| 2026-05-07 16:47 | -34.84679 | -58.39830 | 1969 ft | 147 kts | 277° |
| 2026-05-07 16:48 | -34.84463 | -58.41046 | 1804 ft | 146 kts | 277° |
| 2026-05-07 16:48 | -34.84248 | -58.42256 | 1610 ft | 146 kts | 277° |
| 2026-05-07 16:48 | -34.84033 | -58.43465 | 1423 ft | 145 kts | 277° |
| 2026-05-07 16:48 | -34.83819 | -58.44668 | 1238 ft | 145 kts | 276° |
| 2026-05-07 16:49 | -34.83604 | -58.45872 | 1036 ft | 146 kts | 277° |
| 2026-05-07 16:49 | -34.83394 | -58.47083 | 855 ft | 146 kts | 278° |
| 2026-05-07 16:49 | -34.83181 | -58.48300 | 660 ft | 147 kts | 279° |
| 2026-05-07 16:49 | -34.82962 | -58.49516 | 503 ft | 147 kts | 279° |
| 2026-05-07 16:50 | -34.82745 | -58.50732 | 266 ft | 147 kts | 280° |
| 2026-05-07 16:50 | -34.82515 | -58.51951 | 113 ft | 147 kts | 281° |
| 2026-05-07 16:50 | -34.82316 | -58.53041 | 91 ft | 106 kts | 281° |
| 2026-05-07 16:50 | -34.82214 | -58.53628 | 89 ft | 43 kts | 282° |
| 2026-05-07 16:51 | -34.82174 | -58.53847 | 92 ft | 16 kts | 295° |
| 2026-05-07 16:51 | -34.82108 | -58.53858 | 91 ft | 12 kts | 20° |
| 2026-05-07 16:51 | -34.82023 | -58.53787 | 88 ft | 17 kts | 44° |
| 2026-05-07 16:51 | -34.81980 | -58.53731 | 89 ft | 8 kts | 47° |
| 2026-05-07 16:52 | -34.81933 | -58.53670 | 86 ft | 12 kts | 47° |
| 2026-05-07 16:52 | -34.81861 | -58.53657 | 85 ft | 12 kts | 334° |
| 2026-05-07 16:52 | -34.81807 | -58.53688 | 87 ft | 10 kts | 334° |
| 2026-05-07 16:52 | -34.81760 | -58.53715 | 89 ft | 4 kts | 334° |
| 2026-05-07 16:53 | -34.81728 | -58.53739 | 86 ft | 7 kts | 323° |
| 2026-05-07 16:53 | -34.81684 | -58.53789 | 86 ft | 10 kts | 313° |
| 2026-05-07 16:53 | -34.81640 | -58.53843 | 86 ft | 3 kts | 317° |
| 2026-05-07 16:53 | -34.81614 | -58.53870 | 87 ft | 6 kts | 321° |
| 2026-05-07 16:54 | -34.81605 | -58.53879 | 86 ft | 2 kts | 321° |
| 2026-05-07 16:54 | -34.81586 | -58.53897 | 86 ft | 4 kts | 322° |
| 2026-05-07 16:54 | -34.81574 | -58.53908 | 87 ft | 1 kts | 322° |
| 2026-05-07 16:54 | -34.81566 | -58.53916 | 89 ft | 0 kts | 322° |